<?xml version="1.0" encoding="UTF-8" standalone="no" ?>
<gpx xmlns="http://www.topografix.com/GPX/1/1" xmlns:xsi="http://www.w3.org/2001/XMLSchema-instance" xsi:schemaLocation="http://www.topografix.com/GPX/1/1 http://www.topografix.com/GPX/1/1/gpx.xsd" version="1.1" creator="VisuGPX - https://www.visugpx.com">
  <metadata>
    <name>Davrinche20104</name>
    <desc><![CDATA[la partie 4 des itinéraires de repérage]]></desc>
  </metadata>
  <trk>
    <name><![CDATA[--Charbonnières-les-Vieilles-- OR-5377410:ser-jb06-l]]></name>
    <trkseg>
      <trkpt lat="45.99643" lon="2.99675">
        <ele>617</ele>
        <time>2015-10-18T19:27:14Z</time>
      </trkpt>
      <trkpt lat="45.99656" lon="2.9965">
        <ele>618</ele>
        <time>2015-10-18T19:29:14Z</time>
      </trkpt>
      <trkpt lat="45.99665" lon="2.9963">
        <ele>618</ele>
        <time>2015-10-18T19:31:14Z</time>
      </trkpt>
      <trkpt lat="45.99668" lon="2.99593">
        <ele>620</ele>
        <time>2015-10-18T19:33:14Z</time>
      </trkpt>
      <trkpt lat="45.99645" lon="2.99591">
        <ele>619</ele>
        <time>2015-10-18T19:35:14Z</time>
      </trkpt>
      <trkpt lat="45.99622" lon="2.99599">
        <ele>618</ele>
        <time>2015-10-18T19:37:14Z</time>
      </trkpt>
      <trkpt lat="45.99578" lon="2.99644">
        <ele>617</ele>
        <time>2015-10-18T19:39:14Z</time>
      </trkpt>
      <trkpt lat="45.99557" lon="2.99657">
        <ele>616</ele>
        <time>2015-10-18T19:41:14Z</time>
      </trkpt>
      <trkpt lat="45.99534" lon="2.9967">
        <ele>615</ele>
        <time>2015-10-18T19:43:14Z</time>
      </trkpt>
      <trkpt lat="45.99503" lon="2.99654">
        <ele>613</ele>
        <time>2015-10-18T19:45:14Z</time>
      </trkpt>
      <trkpt lat="45.99499" lon="2.9963">
        <ele>611</ele>
        <time>2015-10-18T19:47:14Z</time>
      </trkpt>
      <trkpt lat="45.99503" lon="2.99533">
        <ele>607</ele>
        <time>2015-10-18T19:49:14Z</time>
      </trkpt>
      <trkpt lat="45.99496" lon="2.99493">
        <ele>606</ele>
        <time>2015-10-18T19:51:14Z</time>
      </trkpt>
      <trkpt lat="45.99465" lon="2.99462">
        <ele>602</ele>
        <time>2015-10-18T19:53:14Z</time>
      </trkpt>
      <trkpt lat="45.99443" lon="2.99444">
        <ele>599</ele>
        <time>2015-10-18T19:55:14Z</time>
      </trkpt>
      <trkpt lat="45.99425" lon="2.99416">
        <ele>597</ele>
        <time>2015-10-18T19:57:14Z</time>
      </trkpt>
      <trkpt lat="45.99404" lon="2.99375">
        <ele>594</ele>
        <time>2015-10-18T19:59:14Z</time>
      </trkpt>
      <trkpt lat="45.99388" lon="2.99339">
        <ele>591</ele>
        <time>2015-10-18T20:01:14Z</time>
      </trkpt>
      <trkpt lat="45.99381" lon="2.99314">
        <ele>590</ele>
        <time>2015-10-18T20:03:14Z</time>
      </trkpt>
      <trkpt lat="45.99378" lon="2.99276">
        <ele>589</ele>
        <time>2015-10-18T20:05:14Z</time>
      </trkpt>
      <trkpt lat="45.99377" lon="2.99215">
        <ele>587</ele>
        <time>2015-10-18T20:07:14Z</time>
      </trkpt>
      <trkpt lat="45.99378" lon="2.99167">
        <ele>587</ele>
        <time>2015-10-18T20:09:14Z</time>
      </trkpt>
      <trkpt lat="45.99384" lon="2.99127">
        <ele>588</ele>
        <time>2015-10-18T20:11:14Z</time>
      </trkpt>
      <trkpt lat="45.99408" lon="2.99099">
        <ele>586</ele>
        <time>2015-10-18T20:13:14Z</time>
      </trkpt>
      <trkpt lat="45.99408" lon="2.99071">
        <ele>586</ele>
        <time>2015-10-18T20:15:14Z</time>
      </trkpt>
      <trkpt lat="45.99417" lon="2.99033">
        <ele>586</ele>
        <time>2015-10-18T20:17:14Z</time>
      </trkpt>
      <trkpt lat="45.99424" lon="2.99004">
        <ele>588</ele>
        <time>2015-10-18T20:19:14Z</time>
      </trkpt>
      <trkpt lat="45.99428" lon="2.98977">
        <ele>588</ele>
        <time>2015-10-18T20:21:14Z</time>
      </trkpt>
      <trkpt lat="45.99431" lon="2.9892">
        <ele>589</ele>
        <time>2015-10-18T20:23:14Z</time>
      </trkpt>
      <trkpt lat="45.99433" lon="2.98857">
        <ele>588</ele>
        <time>2015-10-18T20:25:14Z</time>
      </trkpt>
      <trkpt lat="45.99434" lon="2.98812">
        <ele>585</ele>
        <time>2015-10-18T20:27:14Z</time>
      </trkpt>
      <trkpt lat="45.99449" lon="2.98801">
        <ele>582</ele>
        <time>2015-10-18T20:29:14Z</time>
      </trkpt>
      <trkpt lat="45.99454" lon="2.98787">
        <ele>580</ele>
        <time>2015-10-18T20:31:14Z</time>
      </trkpt>
      <trkpt lat="45.99443" lon="2.98772">
        <ele>581</ele>
        <time>2015-10-18T20:33:14Z</time>
      </trkpt>
      <trkpt lat="45.99431" lon="2.98757">
        <ele>581</ele>
        <time>2015-10-18T20:35:14Z</time>
      </trkpt>
      <trkpt lat="45.99402" lon="2.98705">
        <ele>582</ele>
        <time>2015-10-18T20:37:14Z</time>
      </trkpt>
      <trkpt lat="45.99381" lon="2.98669">
        <ele>582</ele>
        <time>2015-10-18T20:39:14Z</time>
      </trkpt>
      <trkpt lat="45.99347" lon="2.98646">
        <ele>586</ele>
        <time>2015-10-18T20:41:14Z</time>
      </trkpt>
      <trkpt lat="45.9933" lon="2.98619">
        <ele>588</ele>
        <time>2015-10-18T20:43:14Z</time>
      </trkpt>
      <trkpt lat="45.99311" lon="2.98585">
        <ele>590</ele>
        <time>2015-10-18T20:45:14Z</time>
      </trkpt>
      <trkpt lat="45.99301" lon="2.98565">
        <ele>592</ele>
        <time>2015-10-18T20:47:14Z</time>
      </trkpt>
      <trkpt lat="45.99314" lon="2.98549">
        <ele>593</ele>
        <time>2015-10-18T20:49:14Z</time>
      </trkpt>
      <trkpt lat="45.99334" lon="2.98567">
        <ele>590</ele>
        <time>2015-10-18T20:51:14Z</time>
      </trkpt>
      <trkpt lat="45.99343" lon="2.98567">
        <ele>589</ele>
        <time>2015-10-18T20:53:14Z</time>
      </trkpt>
      <trkpt lat="45.99348" lon="2.98551">
        <ele>591</ele>
        <time>2015-10-18T20:55:14Z</time>
      </trkpt>
      <trkpt lat="45.99341" lon="2.9852">
        <ele>595</ele>
        <time>2015-10-18T20:57:14Z</time>
      </trkpt>
      <trkpt lat="45.99341" lon="2.98432">
        <ele>601</ele>
        <time>2015-10-18T20:59:14Z</time>
      </trkpt>
      <trkpt lat="45.99282" lon="2.98419">
        <ele>605</ele>
        <time>2015-10-18T21:01:14Z</time>
      </trkpt>
      <trkpt lat="45.99278" lon="2.98392">
        <ele>607</ele>
        <time>2015-10-18T21:03:14Z</time>
      </trkpt>
      <trkpt lat="45.9929" lon="2.98303">
        <ele>610</ele>
        <time>2015-10-18T21:05:14Z</time>
      </trkpt>
      <trkpt lat="45.99288" lon="2.98266">
        <ele>610</ele>
        <time>2015-10-18T21:07:14Z</time>
      </trkpt>
      <trkpt lat="45.9927" lon="2.98157">
        <ele>607</ele>
        <time>2015-10-18T21:09:14Z</time>
      </trkpt>
      <trkpt lat="45.99251" lon="2.98109">
        <ele>606</ele>
        <time>2015-10-18T21:11:14Z</time>
      </trkpt>
      <trkpt lat="45.99235" lon="2.98061">
        <ele>604</ele>
        <time>2015-10-18T21:13:14Z</time>
      </trkpt>
      <trkpt lat="45.99225" lon="2.98007">
        <ele>602</ele>
        <time>2015-10-18T21:15:14Z</time>
      </trkpt>
      <trkpt lat="45.99225" lon="2.97887">
        <ele>591</ele>
        <time>2015-10-18T21:17:14Z</time>
      </trkpt>
      <trkpt lat="45.99252" lon="2.9773">
        <ele>581</ele>
        <time>2015-10-18T21:19:14Z</time>
      </trkpt>
      <trkpt lat="45.99267" lon="2.97646">
        <ele>575</ele>
        <time>2015-10-18T21:21:14Z</time>
      </trkpt>
      <trkpt lat="45.99279" lon="2.97561">
        <ele>568</ele>
        <time>2015-10-18T21:23:14Z</time>
      </trkpt>
      <trkpt lat="45.9927" lon="2.97517">
        <ele>565</ele>
        <time>2015-10-18T21:25:14Z</time>
      </trkpt>
      <trkpt lat="45.99261" lon="2.97456">
        <ele>561</ele>
        <time>2015-10-18T21:27:14Z</time>
      </trkpt>
      <trkpt lat="45.99266" lon="2.97411">
        <ele>558</ele>
        <time>2015-10-18T21:29:14Z</time>
      </trkpt>
      <trkpt lat="45.99273" lon="2.97391">
        <ele>556</ele>
        <time>2015-10-18T21:31:14Z</time>
      </trkpt>
      <trkpt lat="45.99285" lon="2.97377">
        <ele>554</ele>
        <time>2015-10-18T21:33:14Z</time>
      </trkpt>
      <trkpt lat="45.99283" lon="2.97357">
        <ele>552</ele>
        <time>2015-10-18T21:35:14Z</time>
      </trkpt>
      <trkpt lat="45.99273" lon="2.97339">
        <ele>552</ele>
        <time>2015-10-18T21:37:14Z</time>
      </trkpt>
      <trkpt lat="45.99276" lon="2.97318">
        <ele>548</ele>
        <time>2015-10-18T21:39:14Z</time>
      </trkpt>
      <trkpt lat="45.9929" lon="2.97324">
        <ele>548</ele>
        <time>2015-10-18T21:41:14Z</time>
      </trkpt>
      <trkpt lat="45.99302" lon="2.9733">
        <ele>548</ele>
        <time>2015-10-18T21:43:14Z</time>
      </trkpt>
      <trkpt lat="45.99306" lon="2.97317">
        <ele>545</ele>
        <time>2015-10-18T21:45:14Z</time>
      </trkpt>
      <trkpt lat="45.99298" lon="2.97273">
        <ele>538</ele>
        <time>2015-10-18T21:47:14Z</time>
      </trkpt>
      <trkpt lat="45.99288" lon="2.97253">
        <ele>535</ele>
        <time>2015-10-18T21:49:14Z</time>
      </trkpt>
      <trkpt lat="45.99274" lon="2.97243">
        <ele>533</ele>
        <time>2015-10-18T21:51:14Z</time>
      </trkpt>
      <trkpt lat="45.99259" lon="2.97233">
        <ele>532</ele>
        <time>2015-10-18T21:53:14Z</time>
      </trkpt>
      <trkpt lat="45.99261" lon="2.97215">
        <ele>529</ele>
        <time>2015-10-18T21:55:14Z</time>
      </trkpt>
      <trkpt lat="45.99294" lon="2.97168">
        <ele>522</ele>
        <time>2015-10-18T21:57:14Z</time>
      </trkpt>
      <trkpt lat="45.99299" lon="2.97138">
        <ele>521</ele>
        <time>2015-10-18T21:59:14Z</time>
      </trkpt>
      <trkpt lat="45.99301" lon="2.97109">
        <ele>520</ele>
        <time>2015-10-18T22:01:14Z</time>
      </trkpt>
      <trkpt lat="45.9932" lon="2.97081">
        <ele>519</ele>
        <time>2015-10-18T22:03:14Z</time>
      </trkpt>
      <trkpt lat="45.99347" lon="2.97064">
        <ele>519</ele>
        <time>2015-10-18T22:05:14Z</time>
      </trkpt>
      <trkpt lat="45.99394" lon="2.97048">
        <ele>519</ele>
        <time>2015-10-18T22:07:14Z</time>
      </trkpt>
      <trkpt lat="45.99455" lon="2.97073">
        <ele>519</ele>
        <time>2015-10-18T22:09:14Z</time>
      </trkpt>
      <trkpt lat="45.99514" lon="2.97111">
        <ele>521</ele>
        <time>2015-10-18T22:11:14Z</time>
      </trkpt>
      <trkpt lat="45.99539" lon="2.97167">
        <ele>519</ele>
        <time>2015-10-18T22:13:14Z</time>
      </trkpt>
      <trkpt lat="45.99576" lon="2.97226">
        <ele>517</ele>
        <time>2015-10-18T22:15:14Z</time>
      </trkpt>
      <trkpt lat="45.99604" lon="2.97258">
        <ele>518</ele>
        <time>2015-10-18T22:17:14Z</time>
      </trkpt>
      <trkpt lat="45.99624" lon="2.97272">
        <ele>520</ele>
        <time>2015-10-18T22:19:14Z</time>
      </trkpt>
      <trkpt lat="45.99646" lon="2.97281">
        <ele>522</ele>
        <time>2015-10-18T22:21:14Z</time>
      </trkpt>
      <trkpt lat="45.99659" lon="2.97301">
        <ele>523</ele>
        <time>2015-10-18T22:23:14Z</time>
      </trkpt>
      <trkpt lat="45.99672" lon="2.97322">
        <ele>524</ele>
        <time>2015-10-18T22:25:14Z</time>
      </trkpt>
      <trkpt lat="45.99665" lon="2.97284">
        <ele>524</ele>
        <time>2015-10-18T22:27:14Z</time>
      </trkpt>
      <trkpt lat="45.99673" lon="2.97245">
        <ele>527</ele>
        <time>2015-10-18T22:29:14Z</time>
      </trkpt>
      <trkpt lat="45.99686" lon="2.97224">
        <ele>530</ele>
        <time>2015-10-18T22:31:14Z</time>
      </trkpt>
      <trkpt lat="45.99714" lon="2.97206">
        <ele>535</ele>
        <time>2015-10-18T22:33:14Z</time>
      </trkpt>
      <trkpt lat="45.99736" lon="2.9718">
        <ele>539</ele>
        <time>2015-10-18T22:35:14Z</time>
      </trkpt>
      <trkpt lat="45.99736" lon="2.97152">
        <ele>538</ele>
        <time>2015-10-18T22:37:14Z</time>
      </trkpt>
      <trkpt lat="45.99728" lon="2.97119">
        <ele>537</ele>
        <time>2015-10-18T22:39:14Z</time>
      </trkpt>
      <trkpt lat="45.99735" lon="2.97069">
        <ele>538</ele>
        <time>2015-10-18T22:41:14Z</time>
      </trkpt>
      <trkpt lat="45.99762" lon="2.97032">
        <ele>542</ele>
        <time>2015-10-18T22:43:14Z</time>
      </trkpt>
      <trkpt lat="45.99779" lon="2.97012">
        <ele>546</ele>
        <time>2015-10-18T22:45:14Z</time>
      </trkpt>
      <trkpt lat="45.99787" lon="2.9696">
        <ele>548</ele>
        <time>2015-10-18T22:47:14Z</time>
      </trkpt>
      <trkpt lat="45.99799" lon="2.96881">
        <ele>550</ele>
        <time>2015-10-18T22:49:14Z</time>
      </trkpt>
      <trkpt lat="45.99816" lon="2.96817">
        <ele>552</ele>
        <time>2015-10-18T22:51:14Z</time>
      </trkpt>
      <trkpt lat="45.99814" lon="2.96845">
        <ele>553</ele>
        <time>2015-10-18T22:53:14Z</time>
      </trkpt>
      <trkpt lat="45.99811" lon="2.96901">
        <ele>554</ele>
        <time>2015-10-18T22:55:14Z</time>
      </trkpt>
      <trkpt lat="45.99817" lon="2.96939">
        <ele>556</ele>
        <time>2015-10-18T22:57:14Z</time>
      </trkpt>
      <trkpt lat="45.99822" lon="2.96958">
        <ele>557</ele>
        <time>2015-10-18T22:59:14Z</time>
      </trkpt>
      <trkpt lat="45.99816" lon="2.9702">
        <ele>557</ele>
        <time>2015-10-18T23:01:14Z</time>
      </trkpt>
      <trkpt lat="45.99811" lon="2.97057">
        <ele>556</ele>
        <time>2015-10-18T23:03:14Z</time>
      </trkpt>
      <trkpt lat="45.9982" lon="2.97084">
        <ele>559</ele>
        <time>2015-10-18T23:05:14Z</time>
      </trkpt>
      <trkpt lat="45.99836" lon="2.97116">
        <ele>562</ele>
        <time>2015-10-18T23:07:14Z</time>
      </trkpt>
      <trkpt lat="45.9985" lon="2.97119">
        <ele>563</ele>
        <time>2015-10-18T23:09:14Z</time>
      </trkpt>
      <trkpt lat="45.99905" lon="2.97076">
        <ele>570</ele>
        <time>2015-10-18T23:11:14Z</time>
      </trkpt>
      <trkpt lat="45.99941" lon="2.97053">
        <ele>574</ele>
        <time>2015-10-18T23:13:14Z</time>
      </trkpt>
      <trkpt lat="45.99979" lon="2.97027">
        <ele>578</ele>
        <time>2015-10-18T23:15:14Z</time>
      </trkpt>
      <trkpt lat="46.00008" lon="2.96995">
        <ele>582</ele>
        <time>2015-10-18T23:17:14Z</time>
      </trkpt>
      <trkpt lat="46.00039" lon="2.96961">
        <ele>584</ele>
        <time>2015-10-18T23:19:14Z</time>
      </trkpt>
      <trkpt lat="46.0006" lon="2.96926">
        <ele>586</ele>
        <time>2015-10-18T23:21:14Z</time>
      </trkpt>
      <trkpt lat="46.00078" lon="2.96909">
        <ele>587</ele>
        <time>2015-10-18T23:23:14Z</time>
      </trkpt>
      <trkpt lat="46.00101" lon="2.96905">
        <ele>587</ele>
        <time>2015-10-18T23:25:14Z</time>
      </trkpt>
      <trkpt lat="46.00122" lon="2.96911">
        <ele>588</ele>
        <time>2015-10-18T23:27:14Z</time>
      </trkpt>
      <trkpt lat="46.00142" lon="2.96887">
        <ele>589</ele>
        <time>2015-10-18T23:29:14Z</time>
      </trkpt>
      <trkpt lat="46.00154" lon="2.96873">
        <ele>589</ele>
        <time>2015-10-18T23:31:14Z</time>
      </trkpt>
      <trkpt lat="46.00174" lon="2.96878">
        <ele>590</ele>
        <time>2015-10-18T23:33:14Z</time>
      </trkpt>
      <trkpt lat="46.00207" lon="2.96921">
        <ele>592</ele>
        <time>2015-10-18T23:35:14Z</time>
      </trkpt>
      <trkpt lat="46.00261" lon="2.9694">
        <ele>593</ele>
        <time>2015-10-18T23:37:14Z</time>
      </trkpt>
      <trkpt lat="46.00279" lon="2.96921">
        <ele>595</ele>
        <time>2015-10-18T23:39:14Z</time>
      </trkpt>
      <trkpt lat="46.00297" lon="2.96919">
        <ele>596</ele>
        <time>2015-10-18T23:41:14Z</time>
      </trkpt>
      <trkpt lat="46.00329" lon="2.96922">
        <ele>598</ele>
        <time>2015-10-18T23:43:14Z</time>
      </trkpt>
      <trkpt lat="46.00353" lon="2.96934">
        <ele>600</ele>
        <time>2015-10-18T23:45:14Z</time>
      </trkpt>
      <trkpt lat="46.00367" lon="2.96934">
        <ele>601</ele>
        <time>2015-10-18T23:47:14Z</time>
      </trkpt>
      <trkpt lat="46.00376" lon="2.9692">
        <ele>603</ele>
        <time>2015-10-18T23:49:14Z</time>
      </trkpt>
      <trkpt lat="46.00405" lon="2.96939">
        <ele>605</ele>
        <time>2015-10-18T23:51:14Z</time>
      </trkpt>
      <trkpt lat="46.00438" lon="2.96955">
        <ele>607</ele>
        <time>2015-10-18T23:53:14Z</time>
      </trkpt>
      <trkpt lat="46.00508" lon="2.96986">
        <ele>611</ele>
        <time>2015-10-18T23:55:14Z</time>
      </trkpt>
      <trkpt lat="46.00548" lon="2.96988">
        <ele>612</ele>
        <time>2015-10-18T23:57:14Z</time>
      </trkpt>
      <trkpt lat="46.00604" lon="2.97003">
        <ele>617</ele>
        <time>2015-10-18T23:59:14Z</time>
      </trkpt>
      <trkpt lat="46.00649" lon="2.9702">
        <ele>622</ele>
        <time>2015-10-19T00:01:14Z</time>
      </trkpt>
      <trkpt lat="46.0068" lon="2.97024">
        <ele>625</ele>
        <time>2015-10-19T00:03:14Z</time>
      </trkpt>
      <trkpt lat="46.00727" lon="2.97034">
        <ele>629</ele>
        <time>2015-10-19T00:05:14Z</time>
      </trkpt>
      <trkpt lat="46.00786" lon="2.97043">
        <ele>636</ele>
        <time>2015-10-19T00:07:14Z</time>
      </trkpt>
      <trkpt lat="46.00809" lon="2.97057">
        <ele>640</ele>
        <time>2015-10-19T00:09:14Z</time>
      </trkpt>
      <trkpt lat="46.00832" lon="2.97084">
        <ele>644</ele>
        <time>2015-10-19T00:11:14Z</time>
      </trkpt>
      <trkpt lat="46.00841" lon="2.97097">
        <ele>644</ele>
        <time>2015-10-19T00:13:14Z</time>
      </trkpt>
      <trkpt lat="46.00864" lon="2.97092">
        <ele>644</ele>
        <time>2015-10-19T00:15:14Z</time>
      </trkpt>
      <trkpt lat="46.00923" lon="2.97091">
        <ele>645</ele>
        <time>2015-10-19T00:17:14Z</time>
      </trkpt>
      <trkpt lat="46.00992" lon="2.97119">
        <ele>646</ele>
        <time>2015-10-19T00:19:14Z</time>
      </trkpt>
      <trkpt lat="46.01028" lon="2.97137">
        <ele>647</ele>
        <time>2015-10-19T00:21:14Z</time>
      </trkpt>
      <trkpt lat="46.01071" lon="2.97146">
        <ele>648</ele>
        <time>2015-10-19T00:23:14Z</time>
      </trkpt>
      <trkpt lat="46.01084" lon="2.97115">
        <ele>648</ele>
        <time>2015-10-19T00:25:14Z</time>
      </trkpt>
      <trkpt lat="46.01159" lon="2.97128">
        <ele>649</ele>
        <time>2015-10-19T00:27:14Z</time>
      </trkpt>
      <trkpt lat="46.01251" lon="2.97149">
        <ele>653</ele>
        <time>2015-10-19T00:29:14Z</time>
      </trkpt>
      <trkpt lat="46.01274" lon="2.97163">
        <ele>653</ele>
        <time>2015-10-19T00:31:14Z</time>
      </trkpt>
      <trkpt lat="46.0131" lon="2.97231">
        <ele>654</ele>
        <time>2015-10-19T00:33:14Z</time>
      </trkpt>
      <trkpt lat="46.01368" lon="2.97185">
        <ele>657</ele>
        <time>2015-10-19T00:35:14Z</time>
      </trkpt>
      <trkpt lat="46.014" lon="2.97131">
        <ele>659</ele>
        <time>2015-10-19T00:37:14Z</time>
      </trkpt>
      <trkpt lat="46.01434" lon="2.97064">
        <ele>662</ele>
        <time>2015-10-19T00:39:14Z</time>
      </trkpt>
      <trkpt lat="46.01443" lon="2.97019">
        <ele>666</ele>
        <time>2015-10-19T00:41:14Z</time>
      </trkpt>
      <trkpt lat="46.01449" lon="2.96965">
        <ele>669</ele>
        <time>2015-10-19T00:43:14Z</time>
      </trkpt>
      <trkpt lat="46.01461" lon="2.96946">
        <ele>670</ele>
        <time>2015-10-19T00:45:14Z</time>
      </trkpt>
      <trkpt lat="46.01499" lon="2.96893">
        <ele>674</ele>
        <time>2015-10-19T00:47:14Z</time>
      </trkpt>
      <trkpt lat="46.01563" lon="2.96798">
        <ele>672</ele>
        <time>2015-10-19T00:49:14Z</time>
      </trkpt>
      <trkpt lat="46.01592" lon="2.96775">
        <ele>671</ele>
        <time>2015-10-19T00:51:14Z</time>
      </trkpt>
      <trkpt lat="46.01639" lon="2.96752">
        <ele>671</ele>
        <time>2015-10-19T00:53:14Z</time>
      </trkpt>
      <trkpt lat="46.01714" lon="2.9673">
        <ele>671</ele>
        <time>2015-10-19T00:55:14Z</time>
      </trkpt>
      <trkpt lat="46.01744" lon="2.96721">
        <ele>671</ele>
        <time>2015-10-19T00:57:14Z</time>
      </trkpt>
      <trkpt lat="46.01788" lon="2.967">
        <ele>671</ele>
        <time>2015-10-19T00:59:14Z</time>
      </trkpt>
      <trkpt lat="46.01826" lon="2.96683">
        <ele>672</ele>
        <time>2015-10-19T01:01:14Z</time>
      </trkpt>
      <trkpt lat="46.01846" lon="2.96672">
        <ele>673</ele>
        <time>2015-10-19T01:03:14Z</time>
      </trkpt>
      <trkpt lat="46.01891" lon="2.96622">
        <ele>673</ele>
        <time>2015-10-19T01:05:14Z</time>
      </trkpt>
      <trkpt lat="46.01945" lon="2.96536">
        <ele>676</ele>
        <time>2015-10-19T01:07:14Z</time>
      </trkpt>
      <trkpt lat="46.01978" lon="2.96508">
        <ele>679</ele>
        <time>2015-10-19T01:09:14Z</time>
      </trkpt>
      <trkpt lat="46.02033" lon="2.96458">
        <ele>684</ele>
        <time>2015-10-19T01:11:14Z</time>
      </trkpt>
      <trkpt lat="46.02045" lon="2.96441">
        <ele>684</ele>
        <time>2015-10-19T01:13:14Z</time>
      </trkpt>
      <trkpt lat="46.02077" lon="2.96412">
        <ele>685</ele>
        <time>2015-10-19T01:15:14Z</time>
      </trkpt>
      <trkpt lat="46.02118" lon="2.96386">
        <ele>684</ele>
        <time>2015-10-19T01:17:14Z</time>
      </trkpt>
      <trkpt lat="46.02171" lon="2.96359">
        <ele>682</ele>
        <time>2015-10-19T01:19:14Z</time>
      </trkpt>
      <trkpt lat="46.02206" lon="2.96331">
        <ele>680</ele>
        <time>2015-10-19T01:21:14Z</time>
      </trkpt>
      <trkpt lat="46.02249" lon="2.96302">
        <ele>678</ele>
        <time>2015-10-19T01:23:14Z</time>
      </trkpt>
      <trkpt lat="46.02277" lon="2.96273">
        <ele>676</ele>
        <time>2015-10-19T01:25:14Z</time>
      </trkpt>
      <trkpt lat="46.02293" lon="2.96241">
        <ele>674</ele>
        <time>2015-10-19T01:27:14Z</time>
      </trkpt>
      <trkpt lat="46.02301" lon="2.96194">
        <ele>671</ele>
        <time>2015-10-19T01:29:14Z</time>
      </trkpt>
      <trkpt lat="46.02309" lon="2.96145">
        <ele>669</ele>
        <time>2015-10-19T01:31:14Z</time>
      </trkpt>
      <trkpt lat="46.02315" lon="2.96083">
        <ele>668</ele>
        <time>2015-10-19T01:33:14Z</time>
      </trkpt>
      <trkpt lat="46.02314" lon="2.9599">
        <ele>669</ele>
        <time>2015-10-19T01:35:14Z</time>
      </trkpt>
      <trkpt lat="46.02314" lon="2.9594">
        <ele>670</ele>
        <time>2015-10-19T01:37:14Z</time>
      </trkpt>
      <trkpt lat="46.02326" lon="2.95842">
        <ele>669</ele>
        <time>2015-10-19T01:39:14Z</time>
      </trkpt>
      <trkpt lat="46.0234" lon="2.95789">
        <ele>668</ele>
        <time>2015-10-19T01:41:14Z</time>
      </trkpt>
      <trkpt lat="46.02349" lon="2.95759">
        <ele>668</ele>
        <time>2015-10-19T01:43:14Z</time>
      </trkpt>
      <trkpt lat="46.02368" lon="2.95673">
        <ele>667</ele>
        <time>2015-10-19T01:45:14Z</time>
      </trkpt>
      <trkpt lat="46.02381" lon="2.95612">
        <ele>668</ele>
        <time>2015-10-19T01:47:14Z</time>
      </trkpt>
      <trkpt lat="46.02399" lon="2.95577">
        <ele>669</ele>
        <time>2015-10-19T01:49:14Z</time>
      </trkpt>
      <trkpt lat="46.02417" lon="2.9554">
        <ele>670</ele>
        <time>2015-10-19T01:51:14Z</time>
      </trkpt>
      <trkpt lat="46.02419" lon="2.9552">
        <ele>670</ele>
        <time>2015-10-19T01:53:14Z</time>
      </trkpt>
      <trkpt lat="46.02426" lon="2.95473">
        <ele>670</ele>
        <time>2015-10-19T01:55:14Z</time>
      </trkpt>
      <trkpt lat="46.02431" lon="2.95373">
        <ele>670</ele>
        <time>2015-10-19T01:57:14Z</time>
      </trkpt>
      <trkpt lat="46.02433" lon="2.95357">
        <ele>670</ele>
        <time>2015-10-19T01:59:14Z</time>
      </trkpt>
      <trkpt lat="46.0242" lon="2.95308">
        <ele>671</ele>
        <time>2015-10-19T02:01:14Z</time>
      </trkpt>
      <trkpt lat="46.02411" lon="2.95244">
        <ele>672</ele>
        <time>2015-10-19T02:03:14Z</time>
      </trkpt>
      <trkpt lat="46.02419" lon="2.95214">
        <ele>673</ele>
        <time>2015-10-19T02:05:14Z</time>
      </trkpt>
      <trkpt lat="46.02431" lon="2.95182">
        <ele>673</ele>
        <time>2015-10-19T02:07:14Z</time>
      </trkpt>
      <trkpt lat="46.02431" lon="2.95143">
        <ele>674</ele>
        <time>2015-10-19T02:09:14Z</time>
      </trkpt>
      <trkpt lat="46.02423" lon="2.95104">
        <ele>677</ele>
        <time>2015-10-19T02:11:14Z</time>
      </trkpt>
      <trkpt lat="46.02413" lon="2.95059">
        <ele>680</ele>
        <time>2015-10-19T02:13:14Z</time>
      </trkpt>
      <trkpt lat="46.02423" lon="2.9501">
        <ele>681</ele>
        <time>2015-10-19T02:15:14Z</time>
      </trkpt>
      <trkpt lat="46.02446" lon="2.94959">
        <ele>684</ele>
        <time>2015-10-19T02:17:14Z</time>
      </trkpt>
      <trkpt lat="46.02465" lon="2.94826">
        <ele>692</ele>
        <time>2015-10-19T02:19:14Z</time>
      </trkpt>
      <trkpt lat="46.02476" lon="2.94732">
        <ele>697</ele>
        <time>2015-10-19T02:21:14Z</time>
      </trkpt>
      <trkpt lat="46.02488" lon="2.94685">
        <ele>699</ele>
        <time>2015-10-19T02:23:14Z</time>
      </trkpt>
      <trkpt lat="46.0251" lon="2.94643">
        <ele>698</ele>
        <time>2015-10-19T02:25:14Z</time>
      </trkpt>
      <trkpt lat="46.02523" lon="2.94623">
        <ele>696</ele>
        <time>2015-10-19T02:27:14Z</time>
      </trkpt>
      <trkpt lat="46.02538" lon="2.94575">
        <ele>694</ele>
        <time>2015-10-19T02:29:14Z</time>
      </trkpt>
      <trkpt lat="46.02548" lon="2.9454">
        <ele>690</ele>
        <time>2015-10-19T02:31:14Z</time>
      </trkpt>
      <trkpt lat="46.02658" lon="2.94461">
        <ele>681</ele>
        <time>2015-10-19T02:33:14Z</time>
      </trkpt>
      <trkpt lat="46.0267" lon="2.94442">
        <ele>681</ele>
        <time>2015-10-19T02:35:14Z</time>
      </trkpt>
      <trkpt lat="46.02682" lon="2.94404">
        <ele>681</ele>
        <time>2015-10-19T02:37:14Z</time>
      </trkpt>
      <trkpt lat="46.02694" lon="2.94352">
        <ele>680</ele>
        <time>2015-10-19T02:39:14Z</time>
      </trkpt>
      <trkpt lat="46.02701" lon="2.94306">
        <ele>677</ele>
        <time>2015-10-19T02:41:14Z</time>
      </trkpt>
      <trkpt lat="46.02687" lon="2.94278">
        <ele>676</ele>
        <time>2015-10-19T02:43:14Z</time>
      </trkpt>
      <trkpt lat="46.02662" lon="2.94252">
        <ele>676</ele>
        <time>2015-10-19T02:45:14Z</time>
      </trkpt>
      <trkpt lat="46.02641" lon="2.94243">
        <ele>678</ele>
        <time>2015-10-19T02:47:14Z</time>
      </trkpt>
      <trkpt lat="46.02635" lon="2.94201">
        <ele>677</ele>
        <time>2015-10-19T02:49:14Z</time>
      </trkpt>
      <trkpt lat="46.02639" lon="2.94139">
        <ele>678</ele>
        <time>2015-10-19T02:51:14Z</time>
      </trkpt>
      <trkpt lat="46.02662" lon="2.94127">
        <ele>677</ele>
        <time>2015-10-19T02:53:14Z</time>
      </trkpt>
      <trkpt lat="46.02684" lon="2.941">
        <ele>677</ele>
        <time>2015-10-19T02:55:14Z</time>
      </trkpt>
      <trkpt lat="46.02698" lon="2.94083">
        <ele>676</ele>
        <time>2015-10-19T02:57:14Z</time>
      </trkpt>
      <trkpt lat="46.02723" lon="2.94021">
        <ele>677</ele>
        <time>2015-10-19T02:59:14Z</time>
      </trkpt>
      <trkpt lat="46.0273" lon="2.93977">
        <ele>678</ele>
        <time>2015-10-19T03:01:14Z</time>
      </trkpt>
      <trkpt lat="46.02748" lon="2.93898">
        <ele>676</ele>
        <time>2015-10-19T03:03:14Z</time>
      </trkpt>
      <trkpt lat="46.02657" lon="2.93872">
        <ele>690</ele>
        <time>2015-10-19T03:05:14Z</time>
      </trkpt>
      <trkpt lat="46.02589" lon="2.93848">
        <ele>692</ele>
        <time>2015-10-19T03:07:14Z</time>
      </trkpt>
      <trkpt lat="46.02492" lon="2.93837">
        <ele>698</ele>
        <time>2015-10-19T03:09:14Z</time>
      </trkpt>
      <trkpt lat="46.02425" lon="2.93836">
        <ele>705</ele>
        <time>2015-10-19T03:11:14Z</time>
      </trkpt>
      <trkpt lat="46.02363" lon="2.93826">
        <ele>709</ele>
        <time>2015-10-19T03:13:14Z</time>
      </trkpt>
      <trkpt lat="46.02285" lon="2.93818">
        <ele>711</ele>
        <time>2015-10-19T03:15:14Z</time>
      </trkpt>
      <trkpt lat="46.02265" lon="2.93824">
        <ele>713</ele>
        <time>2015-10-19T03:17:14Z</time>
      </trkpt>
      <trkpt lat="46.02209" lon="2.93722">
        <ele>709</ele>
        <time>2015-10-19T03:19:14Z</time>
      </trkpt>
      <trkpt lat="46.02151" lon="2.93624">
        <ele>706</ele>
        <time>2015-10-19T03:21:14Z</time>
      </trkpt>
      <trkpt lat="46.02098" lon="2.93574">
        <ele>703</ele>
        <time>2015-10-19T03:23:14Z</time>
      </trkpt>
      <trkpt lat="46.0206" lon="2.93531">
        <ele>699</ele>
        <time>2015-10-19T03:25:14Z</time>
      </trkpt>
      <trkpt lat="46.02031" lon="2.93534">
        <ele>700</ele>
        <time>2015-10-19T03:27:14Z</time>
      </trkpt>
      <trkpt lat="46.01958" lon="2.93546">
        <ele>703</ele>
        <time>2015-10-19T03:29:14Z</time>
      </trkpt>
      <trkpt lat="46.01917" lon="2.9354">
        <ele>702</ele>
        <time>2015-10-19T03:31:14Z</time>
      </trkpt>
      <trkpt lat="46.01904" lon="2.93511">
        <ele>698</ele>
        <time>2015-10-19T03:33:14Z</time>
      </trkpt>
      <trkpt lat="46.01865" lon="2.935">
        <ele>697</ele>
        <time>2015-10-19T03:35:14Z</time>
      </trkpt>
      <trkpt lat="46.01847" lon="2.93367">
        <ele>687</ele>
        <time>2015-10-19T03:37:14Z</time>
      </trkpt>
      <trkpt lat="46.01733" lon="2.93299">
        <ele>675</ele>
        <time>2015-10-19T03:39:14Z</time>
      </trkpt>
      <trkpt lat="46.01545" lon="2.93259">
        <ele>659</ele>
        <time>2015-10-19T03:41:14Z</time>
      </trkpt>
      <trkpt lat="46.01538" lon="2.93238">
        <ele>657</ele>
        <time>2015-10-19T03:43:14Z</time>
      </trkpt>
      <trkpt lat="46.01538" lon="2.9321">
        <ele>654</ele>
        <time>2015-10-19T03:45:14Z</time>
      </trkpt>
      <trkpt lat="46.01556" lon="2.93186">
        <ele>651</ele>
        <time>2015-10-19T03:47:14Z</time>
      </trkpt>
      <trkpt lat="46.01598" lon="2.93124">
        <ele>644</ele>
        <time>2015-10-19T03:49:14Z</time>
      </trkpt>
      <trkpt lat="46.01566" lon="2.93046">
        <ele>637</ele>
        <time>2015-10-19T03:51:14Z</time>
      </trkpt>
      <trkpt lat="46.01554" lon="2.93012">
        <ele>634</ele>
        <time>2015-10-19T03:53:14Z</time>
      </trkpt>
      <trkpt lat="46.01548" lon="2.92991">
        <ele>632</ele>
        <time>2015-10-19T03:55:14Z</time>
      </trkpt>
      <trkpt lat="46.01555" lon="2.92959">
        <ele>629</ele>
        <time>2015-10-19T03:57:14Z</time>
      </trkpt>
      <trkpt lat="46.01568" lon="2.92944">
        <ele>628</ele>
        <time>2015-10-19T03:59:14Z</time>
      </trkpt>
      <trkpt lat="46.01577" lon="2.92937">
        <ele>627</ele>
        <time>2015-10-19T04:01:14Z</time>
      </trkpt>
      <trkpt lat="46.01588" lon="2.92908">
        <ele>626</ele>
        <time>2015-10-19T04:03:14Z</time>
      </trkpt>
      <trkpt lat="46.01589" lon="2.92883">
        <ele>625</ele>
        <time>2015-10-19T04:05:14Z</time>
      </trkpt>
      <trkpt lat="46.01586" lon="2.92857">
        <ele>624</ele>
        <time>2015-10-19T04:07:14Z</time>
      </trkpt>
      <trkpt lat="46.01576" lon="2.92833">
        <ele>621</ele>
        <time>2015-10-19T04:09:14Z</time>
      </trkpt>
      <trkpt lat="46.01585" lon="2.928">
        <ele>622</ele>
        <time>2015-10-19T04:11:14Z</time>
      </trkpt>
      <trkpt lat="46.01601" lon="2.92755">
        <ele>625</ele>
        <time>2015-10-19T04:13:14Z</time>
      </trkpt>
      <trkpt lat="46.01612" lon="2.92725">
        <ele>627</ele>
        <time>2015-10-19T04:15:14Z</time>
      </trkpt>
      <trkpt lat="46.01616" lon="2.92699">
        <ele>627</ele>
        <time>2015-10-19T04:17:14Z</time>
      </trkpt>
      <trkpt lat="46.01615" lon="2.92623">
        <ele>625</ele>
        <time>2015-10-19T04:19:14Z</time>
      </trkpt>
      <trkpt lat="46.01636" lon="2.9252">
        <ele>623</ele>
        <time>2015-10-19T04:21:14Z</time>
      </trkpt>
      <trkpt lat="46.01655" lon="2.92465">
        <ele>622</ele>
        <time>2015-10-19T04:23:14Z</time>
      </trkpt>
      <trkpt lat="46.01711" lon="2.92418">
        <ele>625</ele>
        <time>2015-10-19T04:25:14Z</time>
      </trkpt>
      <trkpt lat="46.01761" lon="2.92362">
        <ele>621</ele>
        <time>2015-10-19T04:27:14Z</time>
      </trkpt>
      <trkpt lat="46.01799" lon="2.92335">
        <ele>618</ele>
        <time>2015-10-19T04:29:14Z</time>
      </trkpt>
      <trkpt lat="46.01888" lon="2.923">
        <ele>617</ele>
        <time>2015-10-19T04:31:14Z</time>
      </trkpt>
      <trkpt lat="46.0194" lon="2.92256">
        <ele>614</ele>
        <time>2015-10-19T04:33:14Z</time>
      </trkpt>
      <trkpt lat="46.01969" lon="2.92225">
        <ele>614</ele>
        <time>2015-10-19T04:35:14Z</time>
      </trkpt>
      <trkpt lat="46.01996" lon="2.92224">
        <ele>618</ele>
        <time>2015-10-19T04:37:14Z</time>
      </trkpt>
      <trkpt lat="46.02027" lon="2.92205">
        <ele>619</ele>
        <time>2015-10-19T04:39:14Z</time>
      </trkpt>
      <trkpt lat="46.02055" lon="2.9217">
        <ele>620</ele>
        <time>2015-10-19T04:41:14Z</time>
      </trkpt>
      <trkpt lat="46.02059" lon="2.9215">
        <ele>621</ele>
        <time>2015-10-19T04:43:14Z</time>
      </trkpt>
      <trkpt lat="46.02136" lon="2.92088">
        <ele>623</ele>
        <time>2015-10-19T04:45:14Z</time>
      </trkpt>
      <trkpt lat="46.02161" lon="2.9206">
        <ele>621</ele>
        <time>2015-10-19T04:47:14Z</time>
      </trkpt>
      <trkpt lat="46.02174" lon="2.92035">
        <ele>619</ele>
        <time>2015-10-19T04:49:14Z</time>
      </trkpt>
      <trkpt lat="46.02176" lon="2.92002">
        <ele>617</ele>
        <time>2015-10-19T04:51:14Z</time>
      </trkpt>
      <trkpt lat="46.02174" lon="2.91979">
        <ele>617</ele>
        <time>2015-10-19T04:53:14Z</time>
      </trkpt>
      <trkpt lat="46.02168" lon="2.91944">
        <ele>616</ele>
        <time>2015-10-19T04:55:14Z</time>
      </trkpt>
      <trkpt lat="46.0216" lon="2.91887">
        <ele>615</ele>
        <time>2015-10-19T04:57:14Z</time>
      </trkpt>
      <trkpt lat="46.02183" lon="2.9176">
        <ele>605</ele>
        <time>2015-10-19T04:59:14Z</time>
      </trkpt>
      <trkpt lat="46.02203" lon="2.91713">
        <ele>599</ele>
        <time>2015-10-19T05:01:14Z</time>
      </trkpt>
      <trkpt lat="46.02219" lon="2.91667">
        <ele>594</ele>
        <time>2015-10-19T05:03:14Z</time>
      </trkpt>
      <trkpt lat="46.02232" lon="2.91603">
        <ele>585</ele>
        <time>2015-10-19T05:05:14Z</time>
      </trkpt>
      <trkpt lat="46.02238" lon="2.91567">
        <ele>579</ele>
        <time>2015-10-19T05:07:14Z</time>
      </trkpt>
      <trkpt lat="46.02246" lon="2.91509">
        <ele>569</ele>
        <time>2015-10-19T05:09:14Z</time>
      </trkpt>
      <trkpt lat="46.02258" lon="2.91509">
        <ele>567</ele>
        <time>2015-10-19T05:11:14Z</time>
      </trkpt>
      <trkpt lat="46.02279" lon="2.91538">
        <ele>568</ele>
        <time>2015-10-19T05:13:14Z</time>
      </trkpt>
      <trkpt lat="46.02308" lon="2.91584">
        <ele>569</ele>
        <time>2015-10-19T05:15:14Z</time>
      </trkpt>
      <trkpt lat="46.02321" lon="2.91618">
        <ele>569</ele>
        <time>2015-10-19T05:17:14Z</time>
      </trkpt>
      <trkpt lat="46.02329" lon="2.91657">
        <ele>569</ele>
        <time>2015-10-19T05:19:14Z</time>
      </trkpt>
      <trkpt lat="46.02326" lon="2.91701">
        <ele>571</ele>
        <time>2015-10-19T05:21:14Z</time>
      </trkpt>
      <trkpt lat="46.02322" lon="2.91724">
        <ele>572</ele>
        <time>2015-10-19T05:23:14Z</time>
      </trkpt>
      <trkpt lat="46.02304" lon="2.91743">
        <ele>577</ele>
        <time>2015-10-19T05:25:14Z</time>
      </trkpt>
      <trkpt lat="46.023" lon="2.91762">
        <ele>579</ele>
        <time>2015-10-19T05:27:14Z</time>
      </trkpt>
      <trkpt lat="46.02316" lon="2.91797">
        <ele>576</ele>
        <time>2015-10-19T05:29:14Z</time>
      </trkpt>
      <trkpt lat="46.02377" lon="2.91916">
        <ele>569</ele>
        <time>2015-10-19T05:31:14Z</time>
      </trkpt>
      <trkpt lat="46.02381" lon="2.91966">
        <ele>568</ele>
        <time>2015-10-19T05:33:14Z</time>
      </trkpt>
      <trkpt lat="46.02383" lon="2.92034">
        <ele>566</ele>
        <time>2015-10-19T05:35:14Z</time>
      </trkpt>
      <trkpt lat="46.02386" lon="2.92108">
        <ele>563</ele>
        <time>2015-10-19T05:37:14Z</time>
      </trkpt>
      <trkpt lat="46.02386" lon="2.92175">
        <ele>562</ele>
        <time>2015-10-19T05:39:14Z</time>
      </trkpt>
      <trkpt lat="46.02382" lon="2.92268">
        <ele>563</ele>
        <time>2015-10-19T05:41:14Z</time>
      </trkpt>
      <trkpt lat="46.02402" lon="2.92302">
        <ele>559</ele>
        <time>2015-10-19T05:43:14Z</time>
      </trkpt>
      <trkpt lat="46.02413" lon="2.92317">
        <ele>556</ele>
        <time>2015-10-19T05:45:14Z</time>
      </trkpt>
      <trkpt lat="46.02425" lon="2.92323">
        <ele>556</ele>
        <time>2015-10-19T05:47:14Z</time>
      </trkpt>
      <trkpt lat="46.02422" lon="2.92268">
        <ele>555</ele>
        <time>2015-10-19T05:49:14Z</time>
      </trkpt>
      <trkpt lat="46.02425" lon="2.92203">
        <ele>555</ele>
        <time>2015-10-19T05:51:14Z</time>
      </trkpt>
      <trkpt lat="46.0243" lon="2.92151">
        <ele>554</ele>
        <time>2015-10-19T05:53:14Z</time>
      </trkpt>
      <trkpt lat="46.02434" lon="2.92102">
        <ele>552</ele>
        <time>2015-10-19T05:55:14Z</time>
      </trkpt>
      <trkpt lat="46.02437" lon="2.92071">
        <ele>551</ele>
        <time>2015-10-19T05:57:14Z</time>
      </trkpt>
      <trkpt lat="46.02448" lon="2.92033">
        <ele>551</ele>
        <time>2015-10-19T05:59:14Z</time>
      </trkpt>
      <trkpt lat="46.02462" lon="2.92004">
        <ele>548</ele>
        <time>2015-10-19T06:01:14Z</time>
      </trkpt>
      <trkpt lat="46.02475" lon="2.91996">
        <ele>546</ele>
        <time>2015-10-19T06:03:14Z</time>
      </trkpt>
      <trkpt lat="46.0249" lon="2.9196">
        <ele>540</ele>
        <time>2015-10-19T06:05:14Z</time>
      </trkpt>
      <trkpt lat="46.02504" lon="2.9192">
        <ele>533</ele>
        <time>2015-10-19T06:07:14Z</time>
      </trkpt>
      <trkpt lat="46.02519" lon="2.91882">
        <ele>532</ele>
        <time>2015-10-19T06:09:14Z</time>
      </trkpt>
      <trkpt lat="46.02535" lon="2.91852">
        <ele>530</ele>
        <time>2015-10-19T06:11:14Z</time>
      </trkpt>
      <trkpt lat="46.02541" lon="2.91809">
        <ele>524</ele>
        <time>2015-10-19T06:13:14Z</time>
      </trkpt>
      <trkpt lat="46.02547" lon="2.91781">
        <ele>520</ele>
        <time>2015-10-19T06:15:14Z</time>
      </trkpt>
      <trkpt lat="46.02557" lon="2.91734">
        <ele>513</ele>
        <time>2015-10-19T06:17:14Z</time>
      </trkpt>
      <trkpt lat="46.02558" lon="2.91694">
        <ele>509</ele>
        <time>2015-10-19T06:19:14Z</time>
      </trkpt>
      <trkpt lat="46.02552" lon="2.91645">
        <ele>503</ele>
        <time>2015-10-19T06:21:14Z</time>
      </trkpt>
      <trkpt lat="46.02547" lon="2.91595">
        <ele>499</ele>
        <time>2015-10-19T06:23:14Z</time>
      </trkpt>
      <trkpt lat="46.02543" lon="2.91549">
        <ele>495</ele>
        <time>2015-10-19T06:25:14Z</time>
      </trkpt>
      <trkpt lat="46.02545" lon="2.91497">
        <ele>491</ele>
        <time>2015-10-19T06:27:14Z</time>
      </trkpt>
      <trkpt lat="46.02547" lon="2.91465">
        <ele>489</ele>
        <time>2015-10-19T06:29:14Z</time>
      </trkpt>
      <trkpt lat="46.02548" lon="2.9143">
        <ele>488</ele>
        <time>2015-10-19T06:31:14Z</time>
      </trkpt>
      <trkpt lat="46.02537" lon="2.91451">
        <ele>487</ele>
        <time>2015-10-19T06:33:14Z</time>
      </trkpt>
      <trkpt lat="46.02527" lon="2.91429">
        <ele>484</ele>
        <time>2015-10-19T06:35:14Z</time>
      </trkpt>
      <trkpt lat="46.02514" lon="2.91342">
        <ele>471</ele>
        <time>2015-10-19T06:37:14Z</time>
      </trkpt>
      <trkpt lat="46.02507" lon="2.91297">
        <ele>463</ele>
        <time>2015-10-19T06:39:14Z</time>
      </trkpt>
      <trkpt lat="46.02506" lon="2.91254">
        <ele>457</ele>
        <time>2015-10-19T06:41:14Z</time>
      </trkpt>
      <trkpt lat="46.02515" lon="2.91178">
        <ele>445</ele>
        <time>2015-10-19T06:43:14Z</time>
      </trkpt>
      <trkpt lat="46.02519" lon="2.91141">
        <ele>437</ele>
        <time>2015-10-19T06:45:14Z</time>
      </trkpt>
      <trkpt lat="46.02501" lon="2.91149">
        <ele>435</ele>
        <time>2015-10-19T06:47:14Z</time>
      </trkpt>
      <trkpt lat="46.02495" lon="2.91122">
        <ele>431</ele>
        <time>2015-10-19T06:49:14Z</time>
      </trkpt>
      <trkpt lat="46.02501" lon="2.91092">
        <ele>423</ele>
        <time>2015-10-19T06:51:14Z</time>
      </trkpt>
      <trkpt lat="46.02508" lon="2.9104">
        <ele>409</ele>
        <time>2015-10-19T06:53:14Z</time>
      </trkpt>
      <trkpt lat="46.02522" lon="2.91031">
        <ele>406</ele>
        <time>2015-10-19T06:55:14Z</time>
      </trkpt>
      <trkpt lat="46.02551" lon="2.91025">
        <ele>404</ele>
        <time>2015-10-19T06:57:14Z</time>
      </trkpt>
      <trkpt lat="46.02564" lon="2.91023">
        <ele>403</ele>
        <time>2015-10-19T06:59:14Z</time>
      </trkpt>
      <trkpt lat="46.02615" lon="2.91037">
        <ele>405</ele>
        <time>2015-10-19T07:01:14Z</time>
      </trkpt>
      <trkpt lat="46.02639" lon="2.91048">
        <ele>408</ele>
        <time>2015-10-19T07:03:14Z</time>
      </trkpt>
      <trkpt lat="46.02684" lon="2.91049">
        <ele>409</ele>
        <time>2015-10-19T07:05:14Z</time>
      </trkpt>
      <trkpt lat="46.02723" lon="2.91028">
        <ele>408</ele>
        <time>2015-10-19T07:07:14Z</time>
      </trkpt>
      <trkpt lat="46.02751" lon="2.91002">
        <ele>403</ele>
        <time>2015-10-19T07:09:14Z</time>
      </trkpt>
      <trkpt lat="46.02797" lon="2.90948">
        <ele>403</ele>
        <time>2015-10-19T07:11:14Z</time>
      </trkpt>
      <trkpt lat="46.02834" lon="2.90893">
        <ele>394</ele>
        <time>2015-10-19T07:13:14Z</time>
      </trkpt>
      <trkpt lat="46.0287" lon="2.9084">
        <ele>394</ele>
        <time>2015-10-19T07:15:14Z</time>
      </trkpt>
      <trkpt lat="46.02898" lon="2.90824">
        <ele>396</ele>
        <time>2015-10-19T07:17:14Z</time>
      </trkpt>
      <trkpt lat="46.02946" lon="2.90808">
        <ele>399</ele>
        <time>2015-10-19T07:19:14Z</time>
      </trkpt>
      <trkpt lat="46.02986" lon="2.90794">
        <ele>400</ele>
        <time>2015-10-19T07:21:14Z</time>
      </trkpt>
      <trkpt lat="46.02992" lon="2.90785">
        <ele>398</ele>
        <time>2015-10-19T07:23:14Z</time>
      </trkpt>
      <trkpt lat="46.02961" lon="2.90778">
        <ele>394</ele>
        <time>2015-10-19T07:25:14Z</time>
      </trkpt>
      <trkpt lat="46.02951" lon="2.9076">
        <ele>389</ele>
        <time>2015-10-19T07:27:14Z</time>
      </trkpt>
      <trkpt lat="46.02914" lon="2.90754">
        <ele>387</ele>
        <time>2015-10-19T07:29:14Z</time>
      </trkpt>
      <trkpt lat="46.02869" lon="2.9075">
        <ele>389</ele>
        <time>2015-10-19T07:31:14Z</time>
      </trkpt>
      <trkpt lat="46.02917" lon="2.90678">
        <ele>388</ele>
        <time>2015-10-19T07:33:14Z</time>
      </trkpt>
      <trkpt lat="46.02923" lon="2.90672">
        <ele>388</ele>
        <time>2015-10-19T07:35:14Z</time>
      </trkpt>
      <trkpt lat="46.02912" lon="2.90666">
        <ele>389</ele>
        <time>2015-10-19T07:37:14Z</time>
      </trkpt>
      <trkpt lat="46.02905" lon="2.90646">
        <ele>390</ele>
        <time>2015-10-19T07:39:14Z</time>
      </trkpt>
      <trkpt lat="46.02901" lon="2.90618">
        <ele>390</ele>
        <time>2015-10-19T07:41:14Z</time>
      </trkpt>
      <trkpt lat="46.02922" lon="2.90603">
        <ele>387</ele>
        <time>2015-10-19T07:43:14Z</time>
      </trkpt>
      <trkpt lat="46.02951" lon="2.90585">
        <ele>388</ele>
        <time>2015-10-19T07:45:14Z</time>
      </trkpt>
      <trkpt lat="46.03009" lon="2.90549">
        <ele>392</ele>
        <time>2015-10-19T07:47:14Z</time>
      </trkpt>
      <trkpt lat="46.03025" lon="2.9055">
        <ele>393</ele>
        <time>2015-10-19T07:49:14Z</time>
      </trkpt>
      <trkpt lat="46.03092" lon="2.9057">
        <ele>393</ele>
        <time>2015-10-19T07:51:14Z</time>
      </trkpt>
      <trkpt lat="46.03111" lon="2.90582">
        <ele>391</ele>
        <time>2015-10-19T07:53:14Z</time>
      </trkpt>
      <trkpt lat="46.03117" lon="2.90589">
        <ele>391</ele>
        <time>2015-10-19T07:55:14Z</time>
      </trkpt>
      <trkpt lat="46.03155" lon="2.90595">
        <ele>395</ele>
        <time>2015-10-19T07:57:14Z</time>
      </trkpt>
    </trkseg>
  </trk>
</gpx>